createdAt,value
2018-11-29T00:02:09.070Z,7.07
2018-11-29T00:04:56.803Z,4.13
2018-11-29T00:07:42.674Z,3.37
2018-11-29T00:10:12.687Z,3.17
2018-11-29T00:12:42.770Z,4.30
2018-11-29T00:15:13.621Z,5.70
2018-11-29T00:17:43.685Z,5.97
2018-11-29T00:20:17.193Z,6.43
2018-11-29T00:22:48.225Z,5.60
2018-11-29T00:25:18.957Z,5.17
2018-11-29T00:27:49.442Z,4.43
2018-11-29T00:30:22.265Z,5.20
2018-11-29T00:32:53.085Z,4.47
2018-11-29T00:35:23.246Z,5.47
2018-11-29T00:37:53.269Z,4.90
2018-11-29T00:40:24.302Z,4.37
2018-11-29T00:42:54.696Z,3.40
2018-11-29T00:45:24.952Z,2.67
2018-11-29T00:47:54.994Z,2.23
2018-11-29T00:50:25.225Z,2.30
2018-11-29T00:52:55.714Z,2.63
2018-11-29T00:55:25.613Z,2.90
2018-11-29T00:57:55.677Z,3.20
2018-11-29T01:00:26.452Z,3.60
2018-11-29T01:02:56.774Z,3.90
2018-11-29T01:05:26.710Z,3.63
2018-11-29T01:07:56.857Z,3.90
2018-11-29T01:10:26.949Z,3.17
2018-11-29T01:12:57.084Z,2.10
2018-11-29T01:15:26.998Z,2.20
2018-11-29T01:17:57.046Z,2.97
2018-11-29T01:20:27.524Z,2.60
2018-11-29T01:22:57.623Z,1.93
2018-11-29T01:25:27.638Z,2.40
2018-11-29T01:27:57.795Z,2.53
2018-11-29T01:30:28.023Z,2.80
2018-11-29T01:32:58.089Z,2.70
2018-11-29T01:35:28.226Z,2.23
2018-11-29T01:37:58.432Z,1.90
2018-11-29T01:40:28.504Z,2.37
2018-11-29T01:42:58.997Z,2.07
2018-11-29T01:45:29.057Z,2.13
2018-11-29T01:47:59.491Z,2.10
2018-11-29T01:50:29.799Z,1.70
2018-11-29T01:52:59.989Z,1.90
2018-11-29T01:55:31.008Z,2.77
2018-11-29T01:58:02.546Z,3.63
2018-11-29T02:00:32.484Z,4.23
2018-11-29T02:03:02.562Z,4.90
2018-11-29T02:05:32.756Z,5.43
2018-11-29T02:08:03.018Z,6.23
2018-11-29T02:10:38.201Z,5.73
2018-11-29T02:13:08.337Z,4.50
2018-11-29T02:15:38.448Z,4.87
2018-11-29T02:18:09.049Z,4.27
2018-11-29T02:20:39.290Z,4.40
2018-11-29T02:23:09.407Z,4.20
2018-11-29T02:25:39.657Z,5.00
2018-11-29T02:28:09.788Z,4.63
2018-11-29T02:30:41.707Z,4.30
2018-11-29T02:33:12.102Z,3.60
2018-11-29T02:35:42.104Z,4.07
2018-11-29T02:38:12.054Z,3.47
2018-11-29T02:40:42.135Z,2.70
2018-11-29T02:43:12.280Z,4.27
2018-11-29T02:45:42.484Z,4.43
2018-11-29T02:48:12.578Z,4.90
2018-11-29T02:50:42.613Z,4.77
2018-11-29T02:53:12.746Z,4.27
2018-11-29T02:55:42.794Z,4.33
2018-11-29T02:58:12.913Z,4.10
2018-11-29T03:00:43.038Z,4.10
2018-11-29T03:03:13.178Z,3.80
2018-11-29T03:05:43.248Z,2.40
2018-11-29T03:08:13.759Z,1.77
2018-11-29T03:10:44.081Z,1.43
2018-11-29T03:13:14.149Z,1.70
2018-11-29T03:15:44.157Z,1.30
2018-11-29T03:18:14.422Z,1.20
2018-11-29T03:20:44.654Z,1.37
2018-11-29T03:23:14.814Z,1.90
2018-11-29T03:25:44.997Z,2.27
2018-11-29T03:28:15.075Z,2.20
2018-11-29T03:30:45.354Z,2.10
2018-11-29T03:33:15.396Z,2.20
2018-11-29T03:35:45.386Z,1.73
2018-11-29T03:38:15.504Z,2.00
2018-11-29T03:40:45.438Z,1.30
2018-11-29T03:43:15.463Z,1.40
2018-11-29T03:45:45.480Z,2.20
2018-11-29T03:48:15.495Z,2.90
2018-11-29T03:50:45.525Z,2.87
2018-11-29T03:53:15.702Z,2.80
2018-11-29T03:55:45.718Z,3.30
2018-11-29T03:58:15.773Z,3.20
2018-11-29T04:00:45.763Z,2.20
2018-11-29T04:03:15.915Z,2.37
2018-11-29T04:05:46.181Z,1.57
2018-11-29T04:08:16.462Z,1.67
2018-11-29T04:10:47.223Z,1.70
2018-11-29T04:13:18.428Z,1.80
2018-11-29T04:15:48.484Z,1.90
2018-11-29T04:18:18.799Z,1.40
2018-11-29T04:20:49.176Z,1.27
2018-11-29T04:23:19.222Z,1.20
2018-11-29T04:25:49.346Z,1.37
2018-11-29T04:28:19.436Z,1.30
2018-11-29T04:30:49.658Z,1.20
2018-11-29T04:33:19.646Z,1.60
2018-11-29T04:35:49.607Z,1.23
2018-11-29T04:38:19.832Z,1.50
2018-11-29T04:40:49.977Z,1.50
2018-11-29T04:43:19.862Z,1.90
2018-11-29T04:46:00.773Z,1.50
2018-11-29T04:48:31.131Z,2.17
2018-11-29T04:51:01.797Z,1.83
2018-11-29T04:53:31.796Z,1.40
2018-11-29T04:56:01.937Z,1.30
2018-11-29T04:58:32.167Z,1.63
2018-11-29T05:01:02.923Z,1.40
2018-11-29T05:03:33.181Z,1.40
2018-11-29T05:06:03.523Z,1.43
2018-11-29T05:08:33.699Z,1.17
2018-11-29T05:11:03.871Z,1.60
2018-11-29T05:13:33.915Z,2.90
2018-11-29T05:16:04.032Z,1.40
2018-11-29T05:18:35.062Z,1.40
2018-11-29T05:21:05.166Z,1.80
2018-11-29T05:23:35.261Z,1.93
2018-11-29T05:26:05.867Z,2.10
2018-11-29T05:28:36.208Z,2.40
2018-11-29T05:31:06.819Z,1.60
2018-11-29T05:33:37.005Z,1.30
2018-11-29T05:36:06.971Z,2.63
2018-11-29T05:38:37.148Z,1.60
2018-11-29T05:41:07.184Z,2.10
2018-11-29T05:43:37.613Z,2.20
2018-11-29T05:46:08.085Z,1.93
2018-11-29T05:48:38.203Z,2.00
2018-11-29T05:51:08.465Z,1.77
2018-11-29T05:53:38.845Z,4.27
2018-11-29T05:56:09.128Z,5.70
2018-11-29T05:58:39.436Z,4.77
2018-11-29T06:01:13.250Z,2.50
2018-11-29T06:03:43.684Z,2.43
2018-11-29T06:06:13.799Z,5.23
2018-11-29T06:08:43.829Z,4.97
2018-11-29T06:11:14.218Z,3.40
2018-11-29T06:13:44.235Z,2.03
2018-11-29T06:16:14.293Z,2.73
2018-11-29T06:18:45.229Z,1.97
2018-11-29T06:21:15.613Z,2.03
2018-11-29T06:23:46.133Z,1.50
2018-11-29T06:26:16.537Z,2.73
2018-11-29T06:28:46.500Z,1.23
2018-11-29T06:31:16.760Z,1.20
2018-11-29T06:33:47.023Z,1.60
2018-11-29T06:36:17.202Z,1.53
2018-11-29T06:38:47.216Z,1.60
2018-11-29T06:41:17.327Z,1.20
2018-11-29T06:43:47.493Z,2.40
2018-11-29T06:46:17.635Z,3.07
2018-11-29T06:48:47.899Z,2.87
2018-11-29T06:51:17.952Z,2.00
2018-11-29T06:53:53.524Z,1.97
2018-11-29T06:56:24.876Z,1.93
2018-11-29T06:58:56.317Z,3.10
2018-11-29T07:01:26.752Z,3.93
2018-11-29T07:03:57.552Z,3.37
2018-11-29T07:06:29.212Z,2.87
2018-11-29T07:09:00.968Z,3.17
2018-11-29T07:11:32.122Z,3.07
2018-11-29T07:14:03.519Z,2.33
2018-11-29T07:16:34.821Z,2.23
2018-11-29T07:19:06.452Z,2.53
2018-11-29T07:21:50.243Z,2.57
2018-11-29T07:24:21.032Z,2.70
2018-11-29T07:26:51.259Z,2.33
2018-11-29T07:29:21.354Z,2.90
2018-11-29T07:31:51.315Z,3.23
2018-11-29T07:34:21.481Z,6.73
2018-11-29T07:36:51.738Z,5.93
2018-11-29T07:39:21.890Z,6.73
2018-11-29T07:41:52.167Z,6.57
2018-11-29T07:44:22.498Z,6.33
2018-11-29T07:46:52.498Z,7.87
2018-11-29T07:49:22.568Z,9.17
2018-11-29T07:51:52.904Z,11.50
2018-11-29T07:54:23.119Z,12.33
2018-11-29T07:56:53.277Z,15.90
2018-11-29T07:59:23.703Z,18.80
2018-11-29T08:01:53.684Z,17.67
2018-11-29T08:04:23.851Z,17.03
2018-11-29T08:06:54.036Z,17.83
2018-11-29T08:09:24.257Z,18.53
2018-11-29T08:11:54.447Z,15.97
2018-11-29T08:14:24.746Z,15.83
2018-11-29T08:16:54.939Z,16.23
2018-11-29T08:19:25.256Z,15.33
2018-11-29T08:21:55.624Z,17.90
2018-11-29T08:24:25.673Z,15.23
2018-11-29T08:26:55.947Z,15.70
2018-11-29T08:29:25.974Z,13.53
2018-11-29T08:31:56.853Z,13.00
2018-11-29T08:34:26.976Z,13.30
2018-11-29T08:36:56.957Z,12.40
2018-11-29T08:39:26.887Z,14.27
2018-11-29T08:41:57.013Z,12.17
2018-11-29T08:44:27.080Z,11.30
2018-11-29T08:46:57.150Z,12.03
2018-11-29T08:49:27.338Z,12.80
2018-11-29T08:51:57.379Z,11.63
2018-11-29T08:54:27.598Z,13.37
2018-11-29T08:56:57.742Z,12.23
2018-11-29T08:59:27.688Z,14.07
2018-11-29T09:02:00.571Z,12.87
2018-11-29T09:04:30.713Z,12.47
2018-11-29T09:07:01.274Z,12.73
2018-11-29T09:09:31.335Z,13.97
2018-11-29T09:12:01.276Z,13.00
2018-11-29T09:14:31.480Z,13.20
2018-11-29T09:17:01.530Z,13.03
2018-11-29T09:19:31.953Z,14.47
2018-11-29T09:22:01.996Z,13.10
2018-11-29T09:24:32.205Z,11.70
2018-11-29T09:27:02.499Z,12.30
2018-11-29T09:29:32.776Z,13.57
2018-11-29T09:32:02.878Z,13.47
2018-11-29T09:34:33.137Z,13.77
2018-11-29T09:37:03.566Z,11.93
2018-11-29T09:39:34.047Z,13.23
2018-11-29T09:42:04.403Z,13.03
2018-11-29T09:44:34.839Z,12.20
2018-11-29T09:47:04.897Z,13.77
2018-11-29T09:49:35.111Z,13.50
2018-11-29T09:52:05.153Z,12.10
2018-11-29T09:54:35.075Z,13.30
2018-11-29T09:57:05.044Z,12.50
2018-11-29T09:59:35.155Z,12.60
2018-11-29T10:02:05.229Z,12.10
2018-11-29T10:04:35.219Z,11.50
2018-11-29T10:07:05.115Z,10.80
2018-11-29T10:09:35.253Z,10.40
2018-11-29T10:12:05.859Z,12.20
2018-11-29T10:14:35.979Z,13.50
2018-11-29T10:17:06.257Z,14.07
2018-11-29T10:19:36.690Z,12.00
2018-11-29T10:22:07.626Z,11.80
2018-11-29T10:24:37.992Z,17.37
2018-11-29T10:27:08.385Z,11.23
2018-11-29T10:29:38.733Z,11.50
2018-11-29T10:32:09.057Z,10.73
2018-11-29T10:34:39.430Z,12.57
2018-11-29T10:37:09.781Z,11.10
2018-11-29T10:39:40.414Z,11.90
2018-11-29T10:42:10.254Z,11.03
2018-11-29T10:44:40.551Z,11.37
2018-11-29T10:47:10.654Z,13.70
2018-11-29T10:49:40.928Z,13.93
2018-11-29T10:52:10.847Z,12.17
2018-11-29T10:54:41.256Z,13.00
2018-11-29T10:57:11.739Z,13.50
2018-11-29T10:59:42.324Z,12.87
2018-11-29T11:02:13.664Z,13.53
2018-11-29T11:04:43.859Z,12.63
2018-11-29T11:07:14.006Z,11.53
2018-11-29T11:09:44.313Z,11.73
2018-11-29T11:12:18.636Z,11.37
2018-11-29T11:14:44.842Z,11.97
2018-11-29T11:17:14.790Z,12.60
2018-11-29T11:19:45.325Z,11.93
2018-11-29T11:22:15.647Z,11.27
2018-11-29T11:24:45.597Z,11.03
2018-11-29T11:27:16.029Z,10.80
2018-11-29T11:29:46.030Z,10.87
2018-11-29T11:32:16.366Z,10.40
2018-11-29T11:34:46.562Z,11.60
2018-11-29T11:37:16.595Z,11.70
2018-11-29T11:39:46.861Z,11.10
2018-11-29T11:42:17.940Z,10.63
2018-11-29T11:44:48.164Z,10.30
2018-11-29T11:47:18.397Z,11.03
2018-11-29T11:49:48.561Z,9.90
2018-11-29T11:52:19.524Z,11.83
2018-11-29T11:54:49.888Z,10.67
2018-11-29T11:57:19.833Z,11.93
2018-11-29T11:59:50.141Z,11.20
2018-11-29T12:02:20.577Z,12.17
2018-11-29T12:04:50.777Z,12.20
2018-11-29T12:07:20.857Z,12.80
2018-11-29T12:09:50.991Z,11.20
2018-11-29T12:12:21.113Z,11.63
2018-11-29T12:14:51.123Z,11.83
2018-11-29T12:17:21.442Z,11.77
2018-11-29T12:19:52.301Z,12.53
2018-11-29T12:22:22.638Z,10.53
2018-11-29T12:24:52.793Z,11.10
2018-11-29T12:27:23.037Z,10.63
2018-11-29T12:29:53.301Z,10.07
2018-11-29T12:32:23.706Z,10.83
2018-11-29T12:34:53.790Z,10.17
2018-11-29T12:37:24.241Z,11.23
2018-11-29T12:39:54.502Z,10.60
2018-11-29T12:42:24.560Z,10.60
2018-11-29T12:44:54.855Z,10.67
2018-11-29T12:47:25.252Z,10.83
2018-11-29T12:49:55.659Z,10.57
2018-11-29T12:52:25.750Z,11.20
2018-11-29T12:54:55.761Z,12.23
2018-11-29T12:57:26.030Z,12.23
2018-11-29T12:59:56.267Z,11.63
2018-11-29T13:02:26.336Z,12.50
2018-11-29T13:04:56.774Z,12.73
2018-11-29T13:07:26.917Z,13.50
2018-11-29T13:09:57.434Z,14.40
2018-11-29T13:12:27.630Z,15.50
2018-11-29T13:14:58.318Z,15.53
2018-11-29T13:17:28.560Z,15.27
2018-11-29T13:19:59.118Z,15.37
2018-11-29T13:22:29.266Z,15.60
2018-11-29T13:24:59.604Z,13.67
2018-11-29T13:27:29.839Z,14.93
2018-11-29T13:30:00.368Z,13.57
2018-11-29T13:32:31.921Z,14.53
2018-11-29T13:35:02.007Z,14.70
2018-11-29T13:37:32.136Z,14.43
2018-11-29T13:40:02.795Z,14.47
2018-11-29T13:42:32.992Z,13.13
2018-11-29T13:45:04.381Z,14.90
2018-11-29T13:47:34.567Z,14.90
2018-11-29T13:50:05.738Z,14.13
2018-11-29T13:52:35.991Z,15.07
2018-11-29T13:55:06.854Z,15.70
2018-11-29T13:57:36.930Z,15.80
2018-11-29T14:00:16.246Z,16.27
2018-11-29T14:02:47.395Z,16.23
2018-11-29T14:05:17.658Z,18.53
2018-11-29T14:07:48.161Z,21.30
2018-11-29T14:10:19.239Z,19.60
2018-11-29T14:12:50.268Z,19.80
2018-11-29T14:15:23.683Z,19.47
2018-11-29T14:17:53.742Z,19.30
2018-11-29T14:20:23.935Z,18.67
2018-11-29T14:22:54.241Z,18.87
2018-11-29T14:25:24.457Z,20.63
2018-11-29T14:27:55.648Z,21.47
2018-11-29T14:30:27.587Z,28.13
2018-11-29T14:33:05.273Z,17.23
2018-11-29T14:35:35.581Z,20.40
2018-11-29T14:38:05.944Z,19.40
2018-11-29T14:40:37.361Z,19.60
2018-11-29T14:43:08.108Z,18.20
2018-11-29T14:45:38.668Z,19.17
2018-11-29T14:48:08.982Z,23.17
2018-11-29T14:50:41.619Z,18.57
2018-11-29T14:53:11.768Z,20.03
2018-11-29T14:55:42.052Z,20.70
2018-11-29T14:58:13.320Z,19.50
2018-11-29T15:00:43.469Z,19.90
2018-11-29T15:03:16.016Z,18.07
2018-11-29T15:05:46.257Z,21.17
2018-11-29T15:08:16.369Z,20.50
2018-11-29T15:10:46.708Z,20.27
2018-11-29T15:13:16.829Z,21.67
2018-11-29T15:15:46.996Z,26.43
2018-11-29T15:18:17.207Z,23.00
2018-11-29T15:20:48.314Z,24.40
2018-11-29T15:23:20.217Z,22.70
2018-11-29T15:25:51.664Z,24.77
2018-11-29T15:28:21.898Z,21.43
2018-11-29T15:30:52.134Z,23.00
2018-11-29T15:33:22.294Z,24.67
2018-11-29T15:35:52.540Z,28.07
2018-11-29T15:38:22.710Z,147.00
2018-11-29T15:40:52.889Z,31.90
2018-11-29T15:43:23.022Z,23.17
2018-11-29T15:45:53.133Z,19.10
2018-11-29T15:48:23.319Z,22.77
2018-11-29T15:50:53.917Z,21.20
2018-11-29T15:53:23.835Z,17.13
2018-11-29T15:55:54.090Z,17.27
2018-11-29T15:58:24.040Z,20.33
2018-11-29T16:00:54.545Z,21.23
2018-11-29T16:03:24.591Z,17.37
2018-11-29T16:05:54.703Z,19.27
2018-11-29T16:08:24.686Z,19.03
2018-11-29T16:10:54.882Z,18.17
2018-11-29T16:13:25.345Z,17.57
2018-11-29T16:15:55.468Z,19.40
2018-11-29T16:18:25.631Z,24.60
2018-11-29T16:20:55.997Z,22.57
2018-11-29T16:23:26.205Z,21.60
2018-11-29T16:25:56.465Z,21.73
2018-11-29T16:28:26.511Z,22.87
2018-11-29T16:30:58.012Z,23.67
2018-11-29T16:33:31.316Z,25.93
2018-11-29T16:36:01.772Z,26.80
2018-11-29T16:38:32.253Z,21.20
2018-11-29T16:41:02.998Z,27.80
2018-11-29T16:43:33.192Z,21.77
2018-11-29T16:46:04.331Z,21.73
2018-11-29T16:48:34.604Z,20.60
2018-11-29T16:51:04.762Z,24.73
2018-11-29T16:53:34.999Z,25.70
2018-11-29T16:56:05.685Z,23.77
2018-11-29T16:58:36.099Z,21.17
2018-11-29T17:01:08.876Z,21.63
2018-11-29T17:03:36.750Z,21.50
2018-11-29T17:06:06.929Z,22.37
2018-11-29T17:08:36.913Z,22.60
2018-11-29T17:11:07.219Z,21.50
2018-11-29T17:13:37.282Z,30.27
2018-11-29T17:16:07.709Z,162.73
2018-11-29T17:18:37.804Z,124.53
2018-11-29T17:21:08.304Z,26.57
2018-11-29T17:23:38.453Z,28.03
2018-11-29T17:26:09.222Z,33.47
2018-11-29T17:28:39.556Z,22.50
2018-11-29T17:31:09.852Z,22.00
2018-11-29T17:33:39.997Z,22.70
2018-11-29T17:36:10.129Z,22.07
2018-11-29T17:38:40.311Z,22.77
2018-11-29T17:41:10.482Z,22.47
2018-11-29T17:43:40.725Z,20.33
2018-11-29T17:46:10.811Z,20.50
2018-11-29T17:48:41.073Z,19.90
2018-11-29T17:51:11.179Z,20.97
2018-11-29T17:53:41.312Z,20.57
2018-11-29T17:56:12.315Z,20.50
2018-11-29T17:58:42.510Z,19.80
2018-11-29T18:01:12.577Z,20.33
2018-11-29T18:03:42.852Z,21.53
2018-11-29T18:06:12.841Z,21.60
2018-11-29T18:08:42.932Z,22.30
2018-11-29T18:11:13.108Z,22.60
2018-11-29T18:13:44.207Z,23.93
2018-11-29T18:16:14.148Z,24.20
2018-11-29T18:18:44.295Z,23.40
2018-11-29T18:21:14.654Z,23.37
2018-11-29T18:23:47.030Z,24.93
2018-11-29T18:26:15.206Z,24.90
2018-11-29T18:28:45.348Z,25.80
2018-11-29T18:31:15.541Z,27.27
2018-11-29T18:33:45.824Z,27.30
2018-11-29T18:36:16.083Z,24.97
2018-11-29T18:38:46.633Z,23.70
2018-11-29T18:41:16.763Z,27.20
2018-11-29T18:43:47.033Z,25.20
2018-11-29T18:46:17.348Z,24.40
2018-11-29T18:48:47.303Z,28.50
2018-11-29T18:51:17.320Z,30.17
2018-11-29T18:53:47.638Z,30.13
2018-11-29T18:56:17.756Z,29.90
2018-11-29T18:58:47.895Z,30.17
2018-11-29T19:01:18.204Z,30.93
2018-11-29T19:03:48.478Z,33.27
2018-11-29T19:06:18.723Z,30.80
2018-11-29T19:08:48.905Z,30.33
2018-11-29T19:11:18.979Z,32.43
2018-11-29T19:13:49.205Z,31.17
2018-11-29T19:16:19.921Z,33.40
2018-11-29T19:18:50.180Z,33.93
2018-11-29T19:21:20.505Z,36.73
2018-11-29T19:23:50.814Z,37.30
2018-11-29T19:26:21.251Z,38.17
2018-11-29T19:28:51.404Z,49.73
2018-11-29T19:31:22.393Z,36.80
2018-11-29T19:33:52.591Z,37.87
2018-11-29T19:36:22.967Z,35.33
2018-11-29T19:38:53.690Z,34.73
2018-11-29T19:41:23.998Z,39.00
2018-11-29T19:43:54.071Z,42.47
2018-11-29T19:46:24.140Z,43.90
2018-11-29T19:48:54.596Z,43.73
2018-11-29T19:51:25.182Z,55.93
2018-11-29T19:53:55.258Z,51.90
2018-11-29T19:56:25.639Z,50.17
2018-11-29T19:58:55.630Z,70.80
2018-11-29T20:01:26.227Z,77.90
2018-11-29T20:03:56.645Z,68.77
2018-11-29T20:06:27.376Z,73.67
2018-11-29T20:08:57.498Z,73.27
2018-11-29T20:11:27.533Z,63.63
2018-11-29T20:13:57.840Z,63.93
2018-11-29T20:16:28.172Z,64.73
2018-11-29T20:18:58.287Z,63.07
2018-11-29T20:21:28.868Z,61.33
2018-11-29T20:23:59.102Z,52.17
2018-11-29T20:26:29.598Z,54.17
2018-11-29T20:28:59.773Z,59.70
2018-11-29T20:31:29.964Z,51.00
2018-11-29T20:34:00.165Z,54.30
2018-11-29T20:36:31.619Z,57.30
2018-11-29T20:39:01.649Z,61.37
2018-11-29T20:41:31.930Z,64.73
2018-11-29T20:44:01.792Z,55.17
2018-11-29T20:46:32.924Z,53.53
2018-11-29T20:49:04.008Z,51.77
2018-11-29T20:51:34.025Z,48.87
2018-11-29T20:54:04.195Z,49.20
2018-11-29T20:56:34.322Z,41.43
2018-11-29T20:59:05.563Z,44.70
2018-11-29T21:01:35.681Z,45.87
2018-11-29T21:04:06.204Z,40.60
2018-11-29T21:06:37.556Z,37.20
2018-11-29T21:09:10.647Z,39.03
2018-11-29T21:11:41.030Z,40.90
2018-11-29T21:14:11.423Z,38.80
2018-11-29T21:16:41.844Z,34.87
2018-11-29T21:19:12.345Z,43.93
2018-11-29T21:21:42.903Z,43.07
2018-11-29T21:24:13.015Z,40.60
2018-11-29T21:26:43.098Z,41.17
2018-11-29T21:29:13.542Z,46.07
2018-11-29T21:31:43.693Z,43.67
2018-11-29T21:34:13.771Z,40.90
2018-11-29T21:36:43.834Z,39.83
2018-11-29T21:39:13.993Z,41.30
2018-11-29T21:41:44.108Z,43.23
2018-11-29T21:44:14.422Z,44.40
2018-11-29T21:46:45.167Z,41.70
2018-11-29T21:49:15.322Z,34.77
2018-11-29T21:51:45.510Z,36.87
2018-11-29T21:54:15.636Z,35.23
2018-11-29T21:56:45.803Z,35.20
2018-11-29T21:59:15.967Z,43.27
2018-11-29T22:01:46.460Z,34.30
2018-11-29T22:04:17.018Z,32.10
2018-11-29T22:06:48.054Z,35.20
2018-11-29T22:09:17.376Z,43.10
2018-11-29T22:11:47.515Z,39.83
2018-11-29T22:14:17.598Z,38.53
2018-11-29T22:16:47.708Z,35.53
2018-11-29T22:19:17.816Z,37.60
2018-11-29T22:21:48.218Z,34.13
2018-11-29T22:24:18.703Z,35.67
2018-11-29T22:26:49.211Z,38.80
2018-11-29T22:29:19.672Z,33.40
2018-11-29T22:31:50.051Z,35.07
2018-11-29T22:34:20.303Z,34.63
2018-11-29T22:36:50.481Z,34.33
2018-11-29T22:39:20.571Z,32.37
2018-11-29T22:41:50.861Z,33.70
2018-11-29T22:44:20.996Z,32.40
2018-11-29T22:46:51.426Z,29.90
2018-11-29T22:49:21.746Z,32.50
2018-11-29T22:51:51.988Z,30.50
2018-11-29T22:54:21.946Z,29.87
2018-11-29T22:56:52.101Z,29.50
2018-11-29T22:59:22.981Z,27.80
2018-11-29T23:01:53.312Z,29.13
2018-11-29T23:04:23.489Z,26.40
2018-11-29T23:06:53.507Z,27.57
2018-11-29T23:09:23.781Z,26.07
2018-11-29T23:11:53.856Z,26.07
2018-11-29T23:14:23.883Z,24.37
2018-11-29T23:16:54.226Z,27.03
2018-11-29T23:19:24.492Z,26.93
2018-11-29T23:21:54.667Z,25.73
2018-11-29T23:24:24.723Z,25.70
2018-11-29T23:26:54.671Z,25.30
2018-11-29T23:29:24.666Z,24.50
2018-11-29T23:31:55.048Z,28.20
2018-11-29T23:34:25.126Z,27.43
2018-11-29T23:36:55.570Z,25.17
2018-11-29T23:39:25.802Z,26.10
2018-11-29T23:41:55.921Z,28.80
2018-11-29T23:44:25.842Z,30.10
2018-11-29T23:46:55.836Z,25.50
2018-11-29T23:49:25.663Z,26.27
2018-11-29T23:51:56.013Z,25.60
2018-11-29T23:54:25.976Z,27.07
2018-11-29T23:56:56.233Z,26.80
2018-11-29T23:59:26.226Z,28.10
